ADDS METAR Data INFO
IDs: Format: Raw Decoded Include TAF

Data at: 0630 UTC 15 Dec 2017

KF05 150615Z AUTO 32009KT 10SM CLR 05/M04 A3027 RMK AO1 T00481044
KF05 150555Z AUTO 31007KT 10SM CLR 04/M05 A3026 RMK AO1 T00411047 10133 20026
KF05 150535Z AUTO 31007KT 10SM CLR 04/M05 A3026 RMK AO1 T00401048
KF05 150515Z AUTO 29008KT 10SM CLR 04/M05 A3026 RMK AO1 T00401051
KF05 150455Z AUTO 29007KT 10SM SCT110 03/M05 A3026 RMK AO1 T00331053
KF05 150435Z AUTO 28006KT 10SM SCT110 03/M06 A3025 RMK AO1 T00281060
KF05 150415Z AUTO 28007KT 10SM CLR 03/M06 A3024 RMK AO1 T00261061
KF05 150355Z AUTO 26005KT 10SM CLR 03/M06 A3024 RMK AO1 T00341063
KF05 150335Z AUTO 30005KT 10SM CLR 04/M06 A3023 RMK AO1 T00431063
KF05 150315Z AUTO 32006KT 10SM CLR 04/M06 A3023 RMK AO1 T00421065
KF05 150255Z AUTO 32006KT 10SM CLR 04/M07 A3022 RMK AO1 T00401066
KF05 150235Z AUTO 32006KT 10SM CLR 04/M07 A3022 RMK AO1 T00381066
KF05 150215Z AUTO 34007KT 10SM CLR 04/M06 A3022 RMK AO1 T00401065
KF05 150155Z AUTO 34004KT 10SM CLR 04/M06 A3021 RMK AO1 T00431064
KF05 150135Z AUTO 35006KT 10SM CLR 05/M06 A3021 RMK AO1 T00491065
KF05 150115Z AUTO 34005KT 10SM CLR 05/M07 A3021 RMK AO1 T00511067
KF05 150055Z AUTO 34005KT 10SM CLR 05/M07 A3020 RMK AO1 T00541066
KF05 150035Z AUTO 35005KT 10SM CLR 06/M07 A3020 RMK AO1 T00611066
KF05 150015Z AUTO 35006KT 10SM CLR 07/M07 A3019 RMK AO1 T00721067
KF05 142355Z AUTO 36005KT 10SM CLR 08/M07 A3017 RMK AO1 T00801070 10133 20067
KF05 142335Z AUTO 36005KT 10SM CLR 10/M07 A3017 RMK AO1 T00951072
KF05 142315Z AUTO 36006KT 10SM CLR 11/M08 A3016 RMK AO1 T01111076
KF05 142255Z AUTO 36006KT 10SM CLR 12/M08 A3016 RMK AO1 T01191077
KF05 142235Z AUTO 36009KT 10SM CLR 12/M08 A3016 RMK AO1 T01221079
KF05 142215Z AUTO 01010KT 10SM CLR 13/M08 A3015 RMK AO1 T01251080
KF05 142155Z AUTO 01010G17KT 10SM CLR 13/M08 A3016 RMK AO1 T01261078
KF05 142135Z AUTO 36011G19KT 10SM CLR 13/M08 A3015 RMK AO1 T01301078
KF05 142115Z AUTO 02014G19KT 10SM CLR 13/M08 A3015 RMK AO1 T01311078
KF05 142055Z AUTO 02009G17KT 10SM CLR 13/M08 A3014 RMK AO1 T01311076
KF05 142035Z AUTO 01013G17KT 10SM CLR 13/M08 A3014 RMK AO1 T01311078
KF05 142015Z AUTO 36013G18KT 10SM CLR 13/M08 A3014 RMK AO1 T01311077
KF05 141955Z AUTO 02016G20KT 10SM CLR 13/M08 A3014 RMK AO1 T01321077
KF05 141935Z AUTO 01015G20KT 10SM CLR 13/M08 A3015 RMK AO1 T01321077
KF05 141915Z AUTO 01014G19KT 10SM CLR 13/M07 A3015 RMK AO1 T01311072
KF05 141855Z AUTO 36012G18KT 10SM CLR 13/M07 A3016 RMK AO1 T01291067
KF05 141835Z AUTO 02010G19KT 10SM CLR 13/M06 A3017 RMK AO1 T01271064
KF05 141815Z AUTO 01014G17KT 10SM CLR 13/M06 A3018 RMK AO1 T01251063
KF05 141755Z AUTO 01011G17KT 10SM CLR 12/M06 A3018 RMK AO1 6//// T01231063
KF05 141735Z AUTO 01012KT 10SM CLR 12/M06 A3020 RMK AO1 T01181064
KF05 141715Z AUTO 02010KT 10SM CLR 11/M06 A3020 RMK AO1 T01131065
KF05 141655Z AUTO 02012G15KT 10SM CLR 11/M06 A3020 RMK AO1 T01091062
KF05 141635Z AUTO 01011G17KT 10SM CLR 10/M06 A3020 RMK AO1 T01031064
KF05 141615Z AUTO 01013G17KT 10SM CLR 10/M06 A3019 RMK AO1 T00971062
KF05 141555Z AUTO 02011KT 10SM CLR 09/M06 A3018 RMK AO1 T00911060
KF05 141535Z AUTO 02010KT 10SM CLR 08/M06 A3017 RMK AO1 T00801058
KF05 141515Z AUTO 01012KT 10SM CLR 07/M06 A3016 RMK AO1 T00681059
KF05 141455Z AUTO 36009KT A3016 RMK AO1 6////
KF05 141435Z AUTO 36006KT 10SM CLR 05/M06 A3014 RMK AO1 T00461058
KF05 141415Z AUTO 36007KT 10SM CLR 03/M06 A3013 RMK AO1 T00331060
KF05 141355Z AUTO 35005KT 10SM CLR 03/M06 A3013 RMK AO1 T00301061
KF05 141335Z AUTO 36007KT 10SM CLR 03/M06 A3011 RMK AO1 T00341061
KF05 141315Z AUTO 36006KT 10SM CLR 05/M06 A3011 RMK AO1 T00461061
KF05 141255Z AUTO 01008KT 10SM CLR 05/M06 A3009 RMK AO1 T00511062
KF05 141235Z AUTO 01009KT 10SM CLR 05/M06 A3008 RMK AO1 T00521063
KF05 141215Z AUTO 01010KT 10SM CLR 05/M06 A3006 RMK AO1 T00541065
KF05 141155Z AUTO 01011KT 10SM CLR 05/M07 A3006 RMK AO1 T00541066 10230 20015
KF05 141135Z AUTO 01009KT 10SM CLR 05/M07 A3005 RMK AO1 T00511067
KF05 141115Z AUTO 36008KT 10SM CLR 05/M07 A3004 RMK AO1 T00511070
KF05 141055Z AUTO 01008KT 10SM CLR 05/M07 A3003 RMK AO1 T00541071
KF05 141035Z AUTO 01010KT 10SM CLR 06/M07 A3003 RMK AO1 T00561073
KF05 141015Z AUTO 02009KT 10SM CLR 06/M07 A3002 RMK AO1 T00581075
KF05 140955Z AUTO 01008KT 10SM CLR 06/M08 A3000 RMK AO1 T00581078
KF05 140935Z AUTO 36009KT 10SM CLR 06/M08 A2999 RMK AO1 T00561081
KF05 140915Z AUTO 36009KT 10SM CLR 05/M08 A2998 RMK AO1 T00531083
KF05 140855Z AUTO 36009KT 10SM CLR 05/M09 A2997 RMK AO1 T00521086
KF05 140835Z AUTO 36008KT 10SM CLR 05/M09 A2996 RMK AO1 T00541088
KF05 140815Z AUTO 36007KT 10SM CLR 06/M09 A2997 RMK AO1 T00571090
KF05 140755Z AUTO 36008KT 10SM CLR 05/M09 A2996 RMK AO1 T00521086
KF05 140735Z AUTO 36007KT 10SM CLR 05/M08 A2996 RMK AO1 T00511084
KF05 140715Z AUTO 35007KT 10SM CLR 05/M08 A2995 RMK AO1 T00541082
KF05 140655Z AUTO 35006KT 10SM CLR 05/M08 A2995 RMK AO1 T00531081
KF05 140635Z AUTO 35007KT 10SM CLR 06/M08 A2995 RMK AO1 T00571080
KF05 140615Z AUTO 35007KT 10SM CLR 06/M08 A2995 RMK AO1 T00581077
KF05 140555Z AUTO 36007KT 10SM CLR 06/M08 A2996 RMK AO1 T00631079 10230 20015 402300015
KF05 140535Z AUTO 35006KT 10SM CLR 07/M08 A2995 RMK AO1 T00681080
KF05 140515Z AUTO 34005KT 10SM CLR 07/M08 A2996 RMK AO1 T00691079
KF05 140455Z AUTO 36008KT 10SM CLR 07/M08 A2997 RMK AO1 T00741081
KF05 140435Z AUTO 35005KT 10SM CLR 08/M08 A2996 RMK AO1 T00771081
KF05 140415Z AUTO 01005KT 10SM CLR 08/M08 A2996 RMK AO1 T00801081
KF05 140355Z AUTO 01005KT 10SM CLR 09/M08 A2996 RMK AO1 T00891085
KF05 140335Z AUTO 02005KT 10SM CLR 10/M09 A2995 RMK AO1 T00951086
KF05 140315Z AUTO 01005KT 10SM CLR 09/M08 A2995 RMK AO1 T00931085
KF05 140255Z AUTO 36003KT 10SM CLR 09/M08 A2995 RMK AO1 T00881082
KF05 140235Z AUTO 01006KT 10SM CLR 10/M08 A2995 RMK AO1 T00961083
KF05 140215Z AUTO 02006KT 10SM CLR 10/M08 A2994 RMK AO1 T00961081
KF05 140155Z AUTO 02006KT 10SM CLR 10/M08 A2994 RMK AO1 T01041082
KF05 140135Z AUTO 36005KT 10SM CLR 11/M08 A2993 RMK AO1 T01131084
KF05 140115Z AUTO 04003KT 10SM CLR 12/M09 A2993 RMK AO1 T01191087
KF05 140055Z AUTO 02005KT 10SM CLR 13/M09 A2993 RMK AO1 T01311088
KF05 140035Z AUTO 06004KT 10SM CLR 13/M09 A2992 RMK AO1 T01321093
KF05 140015Z AUTO 04005KT 10SM CLR 15/M10 A2992 RMK AO1 T01491105
KF05 132355Z AUTO 04004KT 10SM CLR 15/M10 A2992 RMK AO1 T01501105 10230 20015
KF05 132335Z AUTO 36004KT 10SM CLR 17/M11 A2992 RMK AO1 T01681112
KF05 132315Z AUTO 10003KT 10SM CLR 18/M11 A2992 RMK AO1 T01791113
KF05 132255Z AUTO 11005KT 10SM CLR 19/M13 A2992 RMK AO1 T01941126
KF05 132235Z AUTO 11005KT 10SM CLR 21/M15 A2992 RMK AO1 T02051147
KF05 132215Z AUTO 09006KT 10SM CLR 21/M15 A2991 RMK AO1 T02101154
KF05 132155Z AUTO 08009KT 10SM CLR 21/M16 A2991 RMK AO1 T02111161
KF05 132135Z AUTO 08009KT 10SM CLR 21/M16 A2991 RMK AO1 T02131164
KF05 132115Z AUTO 08009KT 10SM CLR 21/M17 A2992 RMK AO1 T02141171
KF05 132055Z AUTO 07007KT 10SM CLR 21/M18 A2992 RMK AO1 T02131176
KF05 132035Z AUTO 07007KT 10SM CLR 21/M17 A2992 RMK AO1 T02081174
KF05 132015Z AUTO 09007KT 10SM CLR 20/M17 A2993 RMK AO1 T02011171
KF05 131955Z AUTO 05008KT 10SM CLR 20/M17 A2993 RMK AO1 T01971173
KF05 131935Z AUTO 06006KT 10SM CLR 19/M17 A2994 RMK AO1 T01911169
KF05 131915Z AUTO 04006KT 10SM CLR 18/M17 A2995 RMK AO1 T01831169
KF05 131855Z AUTO 03009KT 10SM CLR 18/M17 A2996 RMK AO1 T01811172
KF05 131835Z AUTO 02009KT 10SM CLR 18/M18 A2997 RMK AO1 T01791177